createdAt,value
2023-04-29T00:00:26.185Z,856.00
2023-04-29T00:01:26.356Z,854.00
2023-04-29T00:02:26.263Z,854.00
2023-04-29T00:03:26.290Z,853.00
2023-04-29T00:04:26.278Z,851.00
2023-04-29T00:05:26.449Z,850.00
2023-04-29T00:06:26.230Z,846.00
2023-04-29T00:07:26.278Z,846.00
2023-04-29T00:08:26.096Z,846.00
2023-04-29T00:09:26.092Z,847.00
2023-04-29T00:10:26.074Z,849.00
2023-04-29T00:11:26.073Z,850.00
2023-04-29T00:12:26.057Z,851.00
2023-04-29T00:13:26.225Z,851.00
2023-04-29T00:14:26.037Z,848.00
2023-04-29T00:15:26.034Z,846.00
2023-04-29T00:16:26.044Z,845.00
2023-04-29T00:17:26.061Z,846.00
2023-04-29T00:18:26.006Z,847.00
2023-04-29T00:19:26.146Z,847.00
2023-04-29T00:20:25.984Z,846.00
2023-04-29T00:21:25.964Z,846.00
2023-04-29T00:22:25.954Z,847.00
2023-04-29T00:23:25.951Z,847.00
2023-04-29T00:24:25.934Z,847.00
2023-04-29T00:25:26.059Z,846.00
2023-04-29T00:26:25.916Z,845.00
2023-04-29T00:27:25.904Z,844.00
2023-04-29T00:28:25.904Z,843.00
2023-04-29T00:29:25.875Z,842.00
2023-04-29T00:30:25.910Z,841.00
2023-04-29T00:31:26.082Z,839.00
2023-04-29T00:32:25.927Z,840.00
2023-04-29T00:33:25.914Z,838.00
2023-04-29T00:34:25.898Z,839.00
2023-04-29T00:35:25.892Z,840.00
2023-04-29T00:36:25.897Z,839.00
2023-04-29T00:37:25.836Z,838.00
2023-04-29T00:38:25.795Z,837.00
2023-04-29T00:39:25.785Z,838.00
2023-04-29T00:40:25.774Z,840.00
2023-04-29T00:41:25.758Z,841.00
2023-04-29T00:42:25.759Z,842.00
2023-04-29T00:43:25.976Z,842.00
2023-04-29T00:44:31.720Z,842.00
2023-04-29T00:45:25.716Z,842.00
2023-04-29T00:46:25.800Z,842.00
2023-04-29T00:47:25.717Z,840.00
2023-04-29T00:48:25.691Z,839.00
2023-04-29T00:49:25.835Z,838.00
2023-04-29T00:50:25.679Z,839.00
2023-04-29T00:51:25.655Z,838.00
2023-04-29T00:52:25.650Z,836.00
2023-04-29T00:53:25.638Z,834.00
2023-04-29T00:54:25.627Z,835.00
2023-04-29T00:55:25.653Z,833.00
2023-04-29T00:56:25.610Z,832.00
2023-04-29T00:57:25.592Z,830.00
2023-04-29T00:58:25.587Z,834.00
2023-04-29T00:59:25.568Z,832.00
2023-04-29T01:00:25.563Z,830.00
2023-04-29T01:01:25.729Z,831.00
2023-04-29T01:02:25.632Z,830.00
2023-04-29T01:03:25.763Z,830.00
2023-04-29T01:04:25.642Z,829.00
2023-04-29T01:05:25.511Z,829.00
2023-04-29T01:06:25.511Z,829.00
2023-04-29T01:07:25.643Z,828.00
2023-04-29T01:08:25.482Z,828.00
2023-04-29T01:09:25.481Z,827.00
2023-04-29T01:10:25.461Z,826.00
2023-04-29T01:11:25.449Z,824.00
2023-04-29T01:12:25.451Z,822.00
2023-04-29T01:13:25.593Z,819.00
2023-04-29T01:14:25.430Z,818.00
2023-04-29T01:15:25.417Z,819.00
2023-04-29T01:16:25.477Z,819.00
2023-04-29T01:17:25.436Z,817.00
2023-04-29T01:18:25.385Z,817.00
2023-04-29T01:19:25.519Z,816.00
2023-04-29T01:20:25.360Z,815.00
2023-04-29T01:21:25.367Z,816.00
2023-04-29T01:22:25.339Z,816.00
2023-04-29T01:23:25.325Z,816.00
2023-04-29T01:24:25.312Z,818.00
2023-04-29T01:25:25.341Z,818.00
2023-04-29T01:26:25.313Z,818.00
2023-04-29T01:27:25.290Z,819.00
2023-04-29T01:28:25.305Z,819.00
2023-04-29T01:29:25.270Z,819.00
2023-04-29T01:30:25.257Z,820.00
2023-04-29T01:31:25.420Z,821.00
2023-04-29T01:32:25.252Z,822.00
2023-04-29T01:33:25.234Z,822.00
2023-04-29T01:34:25.220Z,822.00
2023-04-29T01:35:25.204Z,821.00
2023-04-29T01:36:25.212Z,820.00
2023-04-29T01:37:25.218Z,819.00
2023-04-29T01:38:25.177Z,818.00
2023-04-29T01:39:25.156Z,819.00
2023-04-29T01:40:25.167Z,820.00
2023-04-29T01:41:25.144Z,821.00
2023-04-29T01:42:25.135Z,821.00
2023-04-29T01:43:25.275Z,819.00
2023-04-29T01:44:25.116Z,819.00
2023-04-29T01:45:25.104Z,817.00
2023-04-29T01:46:25.132Z,816.00
2023-04-29T01:47:25.112Z,815.00
2023-04-29T01:48:25.091Z,814.00
2023-04-29T01:49:25.103Z,814.00
2023-04-29T01:50:25.066Z,813.00
2023-04-29T01:51:25.040Z,812.00
2023-04-29T01:52:25.031Z,812.00
2023-04-29T01:53:25.020Z,811.00
2023-04-29T01:54:25.024Z,810.00
2023-04-29T01:55:25.158Z,809.00
2023-04-29T01:56:24.996Z,808.00
2023-04-29T01:57:24.987Z,809.00
2023-04-29T01:58:24.971Z,810.00
2023-04-29T01:59:24.960Z,811.00
2023-04-29T02:00:24.958Z,811.00
2023-04-29T02:01:25.116Z,809.00
2023-04-29T02:02:24.972Z,808.00
2023-04-29T02:03:24.979Z,807.00
2023-04-29T02:04:24.932Z,807.00
2023-04-29T02:05:24.893Z,808.00
2023-04-29T02:06:24.899Z,806.00
2023-04-29T02:07:25.003Z,803.00
2023-04-29T02:08:24.880Z,799.00
2023-04-29T02:09:24.850Z,798.00
2023-04-29T02:10:24.850Z,798.00
2023-04-29T02:11:24.840Z,796.00
2023-04-29T02:12:24.830Z,797.00
2023-04-29T02:13:24.974Z,798.00
2023-04-29T02:14:24.813Z,797.00
2023-04-29T02:15:24.794Z,797.00
2023-04-29T02:16:24.825Z,797.00
2023-04-29T02:17:24.793Z,796.00
2023-04-29T02:18:24.770Z,798.00
2023-04-29T02:19:24.905Z,799.00
2023-04-29T02:20:24.760Z,798.00
2023-04-29T02:21:24.757Z,798.00
2023-04-29T02:22:24.742Z,799.00
2023-04-29T02:23:24.719Z,797.00
2023-04-29T02:24:24.714Z,796.00
2023-04-29T02:25:24.870Z,796.00
2023-04-29T02:26:24.696Z,795.00
2023-04-29T02:27:24.678Z,796.00
2023-04-29T02:28:24.670Z,796.00
2023-04-29T02:29:24.662Z,794.00
2023-04-29T02:30:24.648Z,794.00
2023-04-29T02:31:24.718Z,792.00
2023-04-29T02:32:24.636Z,792.00
2023-04-29T02:33:24.620Z,793.00
2023-04-29T02:34:24.609Z,790.00
2023-04-29T02:35:24.591Z,788.00
2023-04-29T02:36:24.619Z,788.00
2023-04-29T02:37:24.592Z,789.00
2023-04-29T02:38:24.581Z,790.00
2023-04-29T02:39:24.556Z,792.00
2023-04-29T02:40:24.551Z,792.00
2023-04-29T02:41:24.534Z,791.00
2023-04-29T02:42:24.523Z,791.00
2023-04-29T02:43:24.660Z,792.00
2023-04-29T02:44:30.504Z,791.00
2023-04-29T02:45:24.503Z,790.00
2023-04-29T02:46:24.618Z,791.00
2023-04-29T02:47:24.580Z,791.00
2023-04-29T02:48:24.469Z,789.00
2023-04-29T02:49:24.577Z,789.00
2023-04-29T02:50:24.445Z,789.00
2023-04-29T02:51:24.431Z,788.00
2023-04-29T02:52:24.428Z,787.00
2023-04-29T02:53:24.416Z,788.00
2023-04-29T02:54:24.407Z,789.00
2023-04-29T02:55:24.537Z,787.00
2023-04-29T02:56:24.383Z,788.00
2023-04-29T02:57:24.370Z,790.00
2023-04-29T02:58:24.368Z,786.00
2023-04-29T02:59:24.354Z,782.00
2023-04-29T03:00:24.353Z,783.00
2023-04-29T03:01:24.518Z,780.00
2023-04-29T03:02:24.458Z,781.00
2023-04-29T03:03:24.427Z,782.00
2023-04-29T03:04:24.435Z,781.00
2023-04-29T03:05:24.287Z,779.00
2023-04-29T03:06:24.278Z,781.00
2023-04-29T03:07:24.416Z,780.00
2023-04-29T03:08:24.279Z,779.00
2023-04-29T03:09:24.251Z,778.00
2023-04-29T03:10:24.243Z,781.00
2023-04-29T03:11:24.227Z,780.00
2023-04-29T03:12:24.216Z,778.00
2023-04-29T03:13:24.337Z,776.00
2023-04-29T03:14:24.199Z,777.00
2023-04-29T03:15:24.204Z,777.00
2023-04-29T03:16:24.213Z,778.00
2023-04-29T03:17:24.173Z,780.00
2023-04-29T03:18:24.160Z,782.00
2023-04-29T03:19:24.266Z,780.00
2023-04-29T03:20:24.139Z,780.00
2023-04-29T03:21:24.116Z,783.00
2023-04-29T03:22:24.114Z,782.00
2023-04-29T03:23:24.097Z,781.00
2023-04-29T03:24:24.098Z,779.00
2023-04-29T03:25:24.233Z,780.00
2023-04-29T03:26:24.124Z,779.00
2023-04-29T03:27:24.071Z,777.00
2023-04-29T03:28:24.069Z,775.00
2023-04-29T03:29:24.047Z,775.00
2023-04-29T03:30:24.061Z,774.00
2023-04-29T03:31:24.208Z,773.00
2023-04-29T03:32:24.041Z,773.00
2023-04-29T03:33:23.942Z,775.00
2023-04-29T03:34:23.981Z,774.00
2023-04-29T03:35:23.976Z,772.00
2023-04-29T03:36:23.970Z,772.00
2023-04-29T03:37:24.123Z,774.00
2023-04-29T03:38:23.953Z,775.00
2023-04-29T03:39:23.939Z,778.00
2023-04-29T03:40:23.928Z,782.00
2023-04-29T03:41:23.933Z,778.00
2023-04-29T03:42:23.904Z,778.00
2023-04-29T03:43:24.006Z,776.00
2023-04-29T03:44:29.839Z,775.00
2023-04-29T03:45:23.818Z,775.00
2023-04-29T03:46:23.835Z,771.00
2023-04-29T03:47:23.827Z,772.00
2023-04-29T03:48:23.795Z,773.00
2023-04-29T03:49:23.922Z,773.00
2023-04-29T03:50:23.766Z,770.00
2023-04-29T03:51:23.762Z,768.00
2023-04-29T03:52:23.749Z,768.00
2023-04-29T03:53:23.734Z,769.00
2023-04-29T03:54:23.732Z,769.00
2023-04-29T03:55:23.914Z,768.00
2023-04-29T03:56:23.760Z,771.00
2023-04-29T03:57:23.743Z,771.00
2023-04-29T03:58:23.699Z,771.00
2023-04-29T03:59:23.674Z,770.00
2023-04-29T04:00:23.665Z,770.00
2023-04-29T04:01:23.801Z,770.00
2023-04-29T04:02:23.775Z,770.00
2023-04-29T04:03:23.764Z,770.00
2023-04-29T04:04:23.755Z,771.00
2023-04-29T04:05:23.607Z,770.00
2023-04-29T04:06:23.601Z,772.00
2023-04-29T04:07:23.684Z,773.00
2023-04-29T04:08:23.596Z,773.00
2023-04-29T04:09:23.571Z,771.00
2023-04-29T04:10:23.569Z,770.00
2023-04-29T04:11:23.552Z,772.00
2023-04-29T04:12:23.537Z,776.00
2023-04-29T04:13:23.673Z,775.00
2023-04-29T04:14:23.516Z,774.00
2023-04-29T04:15:23.500Z,772.00
2023-04-29T04:16:23.532Z,773.00
2023-04-29T04:17:23.482Z,772.00
2023-04-29T04:18:23.475Z,770.00
2023-04-29T04:19:23.619Z,771.00
2023-04-29T04:20:23.453Z,770.00
2023-04-29T04:21:23.443Z,771.00
2023-04-29T04:22:23.453Z,768.00
2023-04-29T04:23:23.422Z,766.00
2023-04-29T04:24:23.413Z,765.00
2023-04-29T04:25:23.557Z,765.00
2023-04-29T04:26:23.394Z,766.00
2023-04-29T04:27:23.384Z,766.00
2023-04-29T04:28:23.368Z,765.00
2023-04-29T04:29:23.371Z,763.00
2023-04-29T04:30:23.357Z,763.00
2023-04-29T04:31:23.557Z,763.00
2023-04-29T04:32:23.345Z,764.00
2023-04-29T04:33:23.341Z,762.00
2023-04-29T04:34:23.320Z,763.00
2023-04-29T04:35:23.302Z,762.00
2023-04-29T04:36:23.292Z,762.00
2023-04-29T04:37:23.532Z,762.00
2023-04-29T04:38:23.270Z,761.00
2023-04-29T04:39:23.306Z,761.00
2023-04-29T04:40:23.254Z,760.00
2023-04-29T04:41:23.235Z,759.00
2023-04-29T04:42:23.239Z,761.00
2023-04-29T04:43:23.369Z,761.00
2023-04-29T04:44:23.215Z,761.00
2023-04-29T04:45:23.254Z,761.00
2023-04-29T04:46:23.200Z,758.00
2023-04-29T04:47:23.219Z,757.00
2023-04-29T04:48:23.166Z,757.00
2023-04-29T04:49:23.311Z,758.00
2023-04-29T04:50:23.145Z,759.00
2023-04-29T04:51:23.153Z,759.00
2023-04-29T04:52:23.130Z,760.00
2023-04-29T04:53:23.121Z,760.00
2023-04-29T04:54:23.100Z,758.00
2023-04-29T04:55:23.247Z,759.00
2023-04-29T04:56:23.098Z,759.00
2023-04-29T04:57:23.135Z,760.00
2023-04-29T04:58:23.077Z,762.00
2023-04-29T04:59:23.060Z,761.00
2023-04-29T05:00:23.061Z,762.00
2023-04-29T05:01:23.299Z,760.00
2023-04-29T05:02:23.233Z,758.00
2023-04-29T05:03:23.242Z,757.00
2023-04-29T05:04:23.033Z,756.00
2023-04-29T05:05:23.008Z,755.00
2023-04-29T05:06:22.989Z,755.00
2023-04-29T05:07:23.019Z,756.00
2023-04-29T05:08:22.999Z,757.00
2023-04-29T05:09:22.969Z,755.00
2023-04-29T05:10:23.016Z,756.00
2023-04-29T05:11:22.950Z,757.00
2023-04-29T05:12:22.919Z,760.00
2023-04-29T05:13:23.064Z,760.00
2023-04-29T05:14:22.896Z,760.00
2023-04-29T05:15:22.900Z,761.00
2023-04-29T05:16:22.914Z,761.00
2023-04-29T05:17:22.913Z,759.00
2023-04-29T05:18:22.857Z,758.00
2023-04-29T05:19:22.876Z,757.00
2023-04-29T05:20:22.836Z,758.00
2023-04-29T05:21:22.833Z,759.00
2023-04-29T05:22:22.816Z,760.00
2023-04-29T05:23:22.816Z,761.00
2023-04-29T05:24:22.796Z,763.00
2023-04-29T05:25:22.922Z,761.00
2023-04-29T05:26:22.778Z,759.00
2023-04-29T05:27:22.765Z,759.00
2023-04-29T05:28:22.754Z,758.00
2023-04-29T05:29:22.753Z,756.00
2023-04-29T05:30:22.738Z,756.00
2023-04-29T05:31:22.917Z,754.00
2023-04-29T05:32:22.746Z,752.00
2023-04-29T05:33:22.715Z,753.00
2023-04-29T05:34:22.714Z,752.00
2023-04-29T05:35:22.719Z,756.00
2023-04-29T05:36:22.672Z,757.00
2023-04-29T05:37:22.815Z,754.00
2023-04-29T05:38:22.684Z,753.00
2023-04-29T05:39:22.646Z,752.00
2023-04-29T05:40:22.631Z,753.00
2023-04-29T05:41:22.633Z,750.00
2023-04-29T05:42:22.605Z,752.00
2023-04-29T05:43:22.877Z,751.00
2023-04-29T05:44:28.570Z,751.00
2023-04-29T05:45:22.608Z,753.00
2023-04-29T05:46:22.752Z,751.00
2023-04-29T05:47:22.575Z,751.00
2023-04-29T05:48:22.552Z,752.00
2023-04-29T05:49:22.668Z,753.00
2023-04-29T05:50:22.530Z,753.00
2023-04-29T05:51:22.524Z,751.00
2023-04-29T05:52:22.513Z,751.00
2023-04-29T05:53:22.549Z,748.00
2023-04-29T05:54:22.487Z,749.00
2023-04-29T05:55:22.620Z,749.00
2023-04-29T05:56:22.483Z,748.00
2023-04-29T05:57:22.459Z,748.00
2023-04-29T05:58:22.444Z,745.00
2023-04-29T05:59:22.439Z,745.00
2023-04-29T06:00:22.420Z,744.00
2023-04-29T06:01:22.566Z,746.00
2023-04-29T06:02:22.754Z,747.00
2023-04-29T06:03:22.793Z,745.00
2023-04-29T06:04:22.662Z,745.00
2023-04-29T06:05:22.534Z,744.00
2023-04-29T06:06:22.375Z,743.00
2023-04-29T06:07:22.520Z,743.00
2023-04-29T06:08:22.345Z,745.00
2023-04-29T06:09:27.540Z,746.00
2023-04-29T06:10:22.357Z,748.00
2023-04-29T06:11:22.334Z,749.00
2023-04-29T06:12:22.303Z,754.00
2023-04-29T06:13:22.471Z,754.00
2023-04-29T06:14:22.282Z,752.00
2023-04-29T06:15:22.276Z,754.00
2023-04-29T06:16:22.286Z,754.00
2023-04-29T06:17:22.309Z,755.00
2023-04-29T06:18:22.242Z,755.00
2023-04-29T06:19:22.256Z,753.00
2023-04-29T06:20:22.219Z,752.00
2023-04-29T06:21:22.214Z,750.00
2023-04-29T06:22:22.213Z,751.00
2023-04-29T06:23:22.188Z,752.00
2023-04-29T06:24:22.192Z,751.00
2023-04-29T06:25:22.326Z,750.00
2023-04-29T06:26:22.171Z,749.00
2023-04-29T06:27:22.160Z,748.00
2023-04-29T06:28:22.142Z,746.00
2023-04-29T06:29:22.128Z,745.00
2023-04-29T06:30:22.118Z,742.00
2023-04-29T06:31:23.235Z,745.00
2023-04-29T06:32:22.100Z,743.00
2023-04-29T06:33:22.114Z,742.00
2023-04-29T06:34:22.078Z,742.00
2023-04-29T06:35:22.083Z,743.00
2023-04-29T06:36:22.052Z,744.00
2023-04-29T06:37:22.206Z,741.00
2023-04-29T06:38:22.061Z,741.00
2023-04-29T06:39:22.029Z,741.00
2023-04-29T06:40:22.057Z,740.00
2023-04-29T06:41:22.013Z,740.00
2023-04-29T06:42:21.994Z,741.00
2023-04-29T06:43:22.292Z,742.00
2023-04-29T06:44:21.969Z,741.00
2023-04-29T06:45:21.965Z,741.00
2023-04-29T06:46:21.991Z,742.00
2023-04-29T06:47:21.980Z,743.00
2023-04-29T06:48:21.937Z,745.00
2023-04-29T06:49:22.093Z,743.00
2023-04-29T06:50:21.922Z,744.00
2023-04-29T06:51:21.903Z,744.00
2023-04-29T06:52:21.891Z,743.00
2023-04-29T06:53:21.880Z,743.00
2023-04-29T06:54:22.280Z,745.00
2023-04-29T06:55:22.023Z,744.00
2023-04-29T06:56:21.872Z,742.00
2023-04-29T06:57:21.852Z,742.00
2023-04-29T06:58:21.827Z,742.00
2023-04-29T06:59:21.821Z,742.00
2023-04-29T07:00:21.804Z,739.00
2023-04-29T07:01:21.949Z,737.00
2023-04-29T07:02:21.819Z,737.00
2023-04-29T07:03:21.816Z,736.00
2023-04-29T07:04:21.828Z,737.00
2023-04-29T07:05:21.757Z,735.00
2023-04-29T07:06:21.876Z,733.00
2023-04-29T07:07:21.885Z,733.00
2023-04-29T07:08:21.731Z,734.00
2023-04-29T07:09:21.719Z,735.00
2023-04-29T07:10:21.702Z,736.00
2023-04-29T07:11:21.695Z,736.00
2023-04-29T07:12:21.683Z,736.00
2023-04-29T07:13:21.821Z,735.00
2023-04-29T07:14:21.662Z,735.00
2023-04-29T07:15:21.659Z,736.00
2023-04-29T07:16:21.704Z,734.00
2023-04-29T07:17:21.668Z,732.00
2023-04-29T07:18:21.636Z,732.00
2023-04-29T07:19:21.832Z,731.00
2023-04-29T07:20:22.599Z,728.00
2023-04-29T07:21:21.593Z,727.00
2023-04-29T07:22:21.593Z,728.00
2023-04-29T07:23:21.570Z,727.00
2023-04-29T07:24:21.559Z,727.00
2023-04-29T07:25:21.710Z,727.00
2023-04-29T07:26:21.536Z,728.00
2023-04-29T07:27:21.537Z,729.00
2023-04-29T07:28:21.522Z,730.00
2023-04-29T07:29:21.517Z,730.00
2023-04-29T07:30:21.502Z,728.00
2023-04-29T07:31:21.699Z,727.00
2023-04-29T07:32:21.524Z,730.00
2023-04-29T07:33:21.488Z,731.00
2023-04-29T07:34:21.461Z,730.00
2023-04-29T07:35:21.465Z,730.00
2023-04-29T07:36:21.438Z,730.00
2023-04-29T07:37:21.565Z,732.00
2023-04-29T07:38:21.430Z,732.00
2023-04-29T07:39:21.428Z,731.00
2023-04-29T07:40:21.391Z,731.00
2023-04-29T07:41:21.395Z,730.00
2023-04-29T07:42:21.378Z,729.00
2023-04-29T07:43:21.501Z,728.00
2023-04-29T07:44:27.351Z,728.00
2023-04-29T07:45:21.346Z,727.00
2023-04-29T07:46:21.358Z,727.00
2023-04-29T07:47:21.350Z,728.00
2023-04-29T07:48:21.306Z,727.00
2023-04-29T07:49:21.650Z,724.00
2023-04-29T07:50:21.285Z,723.00
2023-04-29T07:51:21.281Z,722.00
2023-04-29T07:52:21.257Z,724.00
2023-04-29T07:53:21.263Z,723.00
2023-04-29T07:54:21.246Z,725.00
2023-04-29T07:55:21.394Z,726.00
2023-04-29T07:56:21.251Z,727.00
2023-04-29T07:57:21.218Z,726.00
2023-04-29T07:58:21.210Z,725.00
2023-04-29T07:59:21.206Z,723.00
2023-04-29T08:00:21.183Z,721.00
2023-04-29T08:01:21.240Z,721.00
2023-04-29T08:02:21.281Z,722.00
2023-04-29T08:03:21.262Z,721.00
2023-04-29T08:04:21.290Z,722.00
2023-04-29T08:05:21.407Z,721.00
2023-04-29T08:06:21.144Z,721.00
2023-04-29T08:07:21.247Z,721.00
2023-04-29T08:08:21.098Z,721.00
2023-04-29T08:09:21.098Z,719.00
2023-04-29T08:10:21.078Z,720.00
2023-04-29T08:11:21.089Z,720.00
2023-04-29T08:12:21.066Z,719.00
2023-04-29T08:13:21.222Z,719.00
2023-04-29T08:14:21.040Z,719.00
2023-04-29T08:15:21.032Z,718.00
2023-04-29T08:16:21.029Z,718.00
2023-04-29T08:17:21.016Z,717.00
2023-04-29T08:18:20.994Z,718.00
2023-04-29T08:19:21.156Z,715.00
2023-04-29T08:20:20.984Z,716.00
2023-04-29T08:21:20.977Z,713.00
2023-04-29T08:22:20.961Z,712.00
2023-04-29T08:23:20.950Z,715.00
2023-04-29T08:24:20.935Z,713.00
2023-04-29T08:25:21.008Z,713.00
2023-04-29T08:26:20.919Z,713.00
2023-04-29T08:27:20.907Z,713.00
2023-04-29T08:28:20.901Z,712.00
2023-04-29T08:29:20.900Z,711.00
2023-04-29T08:30:21.103Z,708.00
2023-04-29T08:31:21.038Z,711.00
2023-04-29T08:32:20.900Z,709.00
2023-04-29T08:33:20.854Z,711.00
2023-04-29T08:34:20.851Z,711.00
2023-04-29T08:35:20.827Z,712.00
2023-04-29T08:36:20.822Z,713.00
2023-04-29T08:37:20.935Z,714.00
2023-04-29T08:38:20.798Z,715.00
2023-04-29T08:39:20.780Z,715.00
2023-04-29T08:40:20.784Z,714.00
2023-04-29T08:41:20.777Z,715.00
2023-04-29T08:42:20.760Z,716.00
2023-04-29T08:43:20.887Z,715.00
2023-04-29T08:46:33.961Z,711.00
2023-04-29T08:47:33.794Z,715.00
2023-04-29T08:48:34.065Z,716.00
2023-04-29T08:49:33.673Z,716.00
2023-04-29T08:50:33.654Z,720.00
2023-04-29T08:51:33.640Z,721.00
2023-04-29T08:52:33.694Z,721.00
2023-04-29T08:53:33.630Z,719.00
2023-04-29T08:54:33.919Z,717.00
2023-04-29T08:55:33.600Z,716.00
2023-04-29T08:56:33.593Z,718.00
2023-04-29T08:57:33.580Z,718.00
2023-04-29T08:58:33.569Z,717.00
2023-04-29T08:59:33.556Z,716.00
2023-04-29T09:00:33.711Z,717.00
2023-04-29T09:01:33.594Z,720.00
2023-04-29T09:02:33.613Z,718.00
2023-04-29T09:03:33.570Z,715.00
2023-04-29T09:04:33.525Z,716.00
2023-04-29T09:05:33.493Z,715.00
2023-04-29T09:06:33.559Z,715.00
2023-04-29T09:07:33.470Z,715.00
2023-04-29T09:08:33.465Z,715.00
2023-04-29T09:09:33.467Z,714.00
2023-04-29T09:10:33.448Z,715.00
2023-04-29T09:11:33.432Z,713.00
2023-04-29T09:12:33.587Z,710.00
2023-04-29T09:13:33.415Z,708.00
2023-04-29T09:14:33.406Z,710.00
2023-04-29T09:15:33.389Z,710.00
2023-04-29T09:16:33.431Z,709.00
2023-04-29T09:17:33.377Z,708.00
2023-04-29T09:18:33.530Z,706.00
2023-04-29T09:19:33.346Z,704.00
2023-04-29T09:20:33.353Z,705.00
2023-04-29T09:21:33.323Z,703.00
2023-04-29T09:22:33.320Z,702.00
2023-04-29T09:23:33.310Z,701.00
2023-04-29T09:24:33.471Z,701.00
2023-04-29T09:25:33.296Z,700.00
2023-04-29T09:26:33.292Z,701.00
2023-04-29T09:27:33.265Z,701.00
2023-04-29T09:28:33.255Z,699.00
2023-04-29T09:29:33.311Z,697.00
2023-04-29T09:30:33.402Z,695.00
2023-04-29T09:31:33.255Z,697.00
2023-04-29T09:32:33.254Z,699.00
2023-04-29T09:33:33.204Z,700.00
2023-04-29T09:34:33.196Z,700.00
2023-04-29T09:35:33.182Z,701.00
2023-04-29T09:36:33.229Z,703.00
2023-04-29T09:37:33.161Z,705.00
2023-04-29T09:38:33.155Z,704.00
2023-04-29T09:39:33.143Z,705.00
2023-04-29T09:40:40.468Z,706.00
2023-04-29T09:41:33.124Z,704.00
2023-04-29T09:42:33.272Z,701.00
2023-04-29T09:43:33.097Z,700.00
2023-04-29T09:44:39.098Z,701.00
2023-04-29T09:45:33.081Z,704.00
2023-04-29T09:46:33.167Z,702.00
2023-04-29T09:47:33.096Z,701.00
2023-04-29T09:48:33.209Z,700.00
2023-04-29T09:49:33.042Z,700.00
2023-04-29T09:50:33.028Z,699.00
2023-04-29T09:51:33.016Z,700.00
2023-04-29T09:52:33.004Z,699.00
2023-04-29T09:53:32.997Z,700.00
2023-04-29T09:54:33.301Z,699.00
2023-04-29T09:55:32.970Z,699.00
2023-04-29T09:56:32.972Z,698.00
2023-04-29T09:57:32.945Z,698.00
2023-04-29T09:58:32.956Z,696.00
2023-04-29T09:59:32.926Z,696.00
2023-04-29T10:00:33.064Z,697.00
2023-04-29T10:01:32.953Z,699.00
2023-04-29T10:02:32.963Z,700.00
2023-04-29T10:03:33.069Z,699.00
2023-04-29T10:04:32.960Z,698.00
2023-04-29T10:05:32.866Z,698.00
2023-04-29T10:06:33.008Z,697.00
2023-04-29T10:07:32.849Z,698.00
2023-04-29T10:08:32.846Z,698.00
2023-04-29T10:09:32.824Z,697.00
2023-04-29T10:10:32.828Z,697.00
2023-04-29T10:11:32.826Z,699.00
2023-04-29T10:12:32.934Z,699.00
2023-04-29T10:13:32.778Z,698.00
2023-04-29T10:14:32.792Z,700.00
2023-04-29T10:15:32.791Z,699.00
2023-04-29T10:16:32.961Z,697.00
2023-04-29T10:17:32.744Z,695.00
2023-04-29T10:18:32.895Z,695.00
2023-04-29T10:19:32.718Z,693.00
2023-04-29T10:20:32.709Z,693.00
2023-04-29T10:21:32.703Z,693.00
2023-04-29T10:22:32.688Z,696.00
2023-04-29T10:23:32.678Z,695.00
2023-04-29T10:24:32.716Z,695.00
2023-04-29T10:25:32.672Z,696.00
2023-04-29T10:26:32.656Z,696.00
2023-04-29T10:27:32.633Z,695.00
2023-04-29T10:28:32.637Z,693.00
2023-04-29T10:29:32.608Z,693.00
2023-04-29T10:30:32.761Z,693.00
2023-04-29T10:31:32.634Z,696.00
2023-04-29T10:32:43.487Z,697.00
2023-04-29T10:33:32.585Z,697.00
2023-04-29T10:34:32.570Z,696.00
2023-04-29T10:35:32.551Z,693.00
2023-04-29T10:36:32.701Z,693.00
2023-04-29T10:37:32.534Z,694.00
2023-04-29T10:38:32.524Z,695.00
2023-04-29T10:39:32.507Z,696.00
2023-04-29T10:40:32.511Z,694.00
2023-04-29T10:41:32.484Z,694.00
2023-04-29T10:42:32.649Z,695.00
2023-04-29T10:43:32.482Z,695.00
2023-04-29T10:44:38.459Z,697.00
2023-04-29T10:45:32.454Z,696.00
2023-04-29T10:46:32.466Z,696.00
2023-04-29T10:47:32.461Z,697.00
2023-04-29T10:48:32.573Z,697.00
2023-04-29T10:49:32.404Z,698.00
2023-04-29T10:50:32.400Z,696.00
2023-04-29T10:51:32.383Z,696.00
2023-04-29T10:52:32.372Z,695.00
2023-04-29T10:53:32.380Z,693.00
2023-04-29T10:54:32.505Z,694.00
2023-04-29T10:55:32.336Z,693.00
2023-04-29T10:56:32.332Z,691.00
2023-04-29T10:57:32.321Z,691.00
2023-04-29T10:58:32.316Z,691.00
2023-04-29T10:59:32.302Z,692.00
2023-04-29T11:00:32.595Z,691.00
2023-04-29T11:01:32.295Z,691.00
2023-04-29T11:02:32.324Z,689.00
2023-04-29T11:03:32.289Z,689.00
2023-04-29T11:04:32.277Z,692.00
2023-04-29T11:05:32.247Z,693.00
2023-04-29T11:06:32.402Z,694.00
2023-04-29T11:07:32.225Z,694.00
2023-04-29T11:08:32.208Z,690.00
2023-04-29T11:09:32.198Z,686.00
2023-04-29T11:10:32.193Z,685.00
2023-04-29T11:11:32.173Z,682.00
2023-04-29T11:12:32.355Z,682.00
2023-04-29T11:13:32.159Z,681.00
2023-04-29T11:14:32.171Z,683.00
2023-04-29T11:15:32.132Z,683.00
2023-04-29T11:16:32.186Z,680.00
2023-04-29T11:17:32.162Z,681.00
2023-04-29T11:18:32.260Z,680.00
2023-04-29T11:19:32.100Z,679.00
2023-04-29T11:20:32.123Z,677.00
2023-04-29T11:21:32.078Z,678.00
2023-04-29T11:22:32.092Z,676.00
2023-04-29T11:23:32.103Z,675.00
2023-04-29T11:24:32.078Z,673.00
2023-04-29T11:25:32.044Z,673.00
2023-04-29T11:26:32.023Z,672.00
2023-04-29T11:27:32.019Z,671.00
2023-04-29T11:28:32.003Z,670.00
2023-04-29T11:29:31.984Z,668.00
2023-04-29T11:30:32.144Z,666.00
2023-04-29T11:31:31.989Z,667.00
2023-04-29T11:32:32.032Z,666.00
2023-04-29T11:33:31.992Z,666.00
2023-04-29T11:34:31.951Z,668.00
2023-04-29T11:35:31.937Z,669.00
2023-04-29T11:36:32.077Z,670.00
2023-04-29T11:37:31.904Z,670.00
2023-04-29T11:38:31.897Z,670.00
2023-04-29T11:39:31.897Z,671.00
2023-04-29T11:40:31.876Z,671.00
2023-04-29T11:41:31.862Z,667.00
2023-04-29T11:42:31.985Z,668.00
2023-04-29T11:43:31.845Z,669.00
2023-04-29T11:44:37.897Z,669.00
2023-04-29T11:45:31.820Z,670.00
2023-04-29T11:46:31.919Z,670.00
2023-04-29T11:47:31.869Z,669.00
2023-04-29T11:48:31.935Z,669.00
2023-04-29T11:49:31.772Z,667.00
2023-04-29T11:50:31.783Z,665.00
2023-04-29T11:51:31.764Z,667.00
2023-04-29T11:52:31.755Z,667.00
2023-04-29T11:53:31.736Z,670.00
2023-04-29T11:54:31.879Z,670.00
2023-04-29T11:55:31.711Z,669.00
2023-04-29T11:56:31.716Z,668.00
2023-04-29T11:57:31.712Z,667.00
2023-04-29T11:58:31.698Z,667.00
2023-04-29T11:59:31.683Z,669.00
2023-04-29T12:00:31.845Z,669.00
2023-04-29T12:01:31.648Z,668.00
2023-04-29T12:02:31.801Z,670.00
2023-04-29T12:03:31.818Z,670.00
2023-04-29T12:04:31.780Z,669.00
2023-04-29T12:05:31.689Z,669.00
2023-04-29T12:06:31.906Z,670.00
2023-04-29T12:07:31.595Z,667.00
2023-04-29T12:08:31.579Z,664.00
2023-04-29T12:09:31.571Z,665.00
2023-04-29T12:10:31.571Z,662.00
2023-04-29T12:11:31.547Z,661.00
2023-04-29T12:12:31.676Z,664.00
2023-04-29T12:13:31.548Z,666.00
2023-04-29T12:14:31.521Z,666.00
2023-04-29T12:15:31.507Z,664.00
2023-04-29T12:16:31.623Z,663.00
2023-04-29T12:17:31.521Z,661.00
2023-04-29T12:18:31.635Z,662.00
2023-04-29T12:19:31.482Z,662.00
2023-04-29T12:20:31.456Z,662.00
2023-04-29T12:21:31.435Z,665.00
2023-04-29T12:22:31.448Z,665.00
2023-04-29T12:23:31.454Z,661.00
2023-04-29T12:24:31.570Z,661.00
2023-04-29T12:25:31.397Z,663.00
2023-04-29T12:26:31.446Z,665.00
2023-04-29T12:27:31.379Z,662.00
2023-04-29T12:28:31.382Z,660.00
2023-04-29T12:29:31.358Z,660.00
2023-04-29T12:30:31.415Z,659.00